sensor_id;sensor_type;location;lat;lon;timestamp;P1;durP1;ratioP1;P2;durP2;ratioP2
40537;SDS011;27925;41.874;12.526;2024-01-30T12:27:09;23.98;;;13.15;;
40537;SDS011;27925;41.874;12.526;2024-01-30T12:29:35;27.50;;;12.10;;
40537;SDS011;27925;41.874;12.526;2024-01-30T12:32:01;18.15;;;12.10;;
40537;SDS011;27925;41.874;12.526;2024-01-30T12:34:26;21.25;;;12.90;;
40537;SDS011;27925;41.874;12.526;2024-01-30T12:36:52;18.90;;;12.45;;
40537;SDS011;27925;41.874;12.526;2024-01-30T12:39:18;26.10;;;12.38;;
40537;SDS011;27925;41.874;12.526;2024-01-30T12:41:44;30.67;;;12.43;;
40537;SDS011;27925;41.874;12.526;2024-01-30T12:44:09;20.95;;;12.10;;
40537;SDS011;27925;41.874;12.526;2024-01-30T12:46:36;58.60;;;14.77;;
40537;SDS011;27925;41.874;12.526;2024-01-30T12:49:02;24.25;;;12.60;;
40537;SDS011;27925;41.874;12.526;2024-01-30T12:51:28;18.88;;;12.48;;
40537;SDS011;27925;41.874;12.526;2024-01-30T12:53:54;18.38;;;11.57;;
40537;SDS011;27925;41.874;12.526;2024-01-30T12:56:19;16.77;;;11.75;;
40537;SDS011;27925;41.874;12.526;2024-01-30T12:58:45;16.33;;;12.10;;
40537;SDS011;27925;41.874;12.526;2024-01-30T13:01:11;17.42;;;11.65;;
40537;SDS011;27925;41.874;12.526;2024-01-30T13:03:37;18.33;;;11.73;;
40537;SDS011;27925;41.874;12.526;2024-01-30T13:06:03;17.45;;;11.70;;
40537;SDS011;27925;41.874;12.526;2024-01-30T13:08:29;19.00;;;12.18;;
40537;SDS011;27925;41.874;12.526;2024-01-30T13:10:54;18.52;;;11.15;;
40537;SDS011;27925;41.874;12.526;2024-01-30T13:13:20;17.30;;;11.57;;
40537;SDS011;27925;41.874;12.526;2024-01-30T13:15:46;15.23;;;11.10;;
40537;SDS011;27925;41.874;12.526;2024-01-30T13:18:12;19.58;;;10.95;;
40537;SDS011;27925;41.874;12.526;2024-01-30T13:20:38;14.02;;;10.23;;
40537;SDS011;27925;41.874;12.526;2024-01-30T13:23:04;15.15;;;10.65;;
40537;SDS011;27925;41.874;12.526;2024-01-30T13:25:29;15.65;;;11.18;;
40537;SDS011;27925;41.874;12.526;2024-01-30T13:27:55;14.60;;;10.43;;
40537;SDS011;27925;41.874;12.526;2024-01-30T13:30:21;14.60;;;10.38;;
40537;SDS011;27925;41.874;12.526;2024-01-30T13:32:46;16.45;;;10.10;;
40537;SDS011;27925;41.874;12.526;2024-01-30T13:35:12;14.45;;;9.82;;
40537;SDS011;27925;41.874;12.526;2024-01-30T13:37:38;14.38;;;9.82;;
40537;SDS011;27925;41.874;12.526;2024-01-30T13:40:04;12.15;;;9.15;;
40537;SDS011;27925;41.874;12.526;2024-01-30T13:42:34;18.67;;;9.52;;
40537;SDS011;27925;41.874;12.526;2024-01-30T13:45:00;13.82;;;9.63;;
40537;SDS011;27925;41.874;12.526;2024-01-30T13:47:26;17.98;;;11.93;;
40537;SDS011;27925;41.874;12.526;2024-01-30T13:49:51;13.07;;;8.88;;
40537;SDS011;27925;41.874;12.526;2024-01-30T13:52:18;13.20;;;8.50;;
40537;SDS011;27925;41.874;12.526;2024-01-30T13:54:44;17.58;;;8.85;;
40537;SDS011;27925;41.874;12.526;2024-01-30T13:57:09;78.40;;;14.27;;
40537;SDS011;27925;41.874;12.526;2024-01-30T13:59:35;65.47;;;12.38;;
40537;SDS011;27925;41.874;12.526;2024-01-30T14:02:02;20.70;;;10.70;;
40537;SDS011;27925;41.874;12.526;2024-01-30T14:04:28;14.85;;;9.13;;
40537;SDS011;27925;41.874;12.526;2024-01-30T14:06:54;15.05;;;8.95;;
40537;SDS011;27925;41.874;12.526;2024-01-30T14:09:19;12.73;;;8.95;;
40537;SDS011;27925;41.874;12.526;2024-01-30T14:11:46;11.85;;;8.75;;
40537;SDS011;27925;41.874;12.526;2024-01-30T14:14:12;12.43;;;7.90;;
40537;SDS011;27925;41.874;12.526;2024-01-30T14:16:37;14.00;;;8.85;;
40537;SDS011;27925;41.874;12.526;2024-01-30T14:19:03;15.80;;;9.75;;
40537;SDS011;27925;41.874;12.526;2024-01-30T14:21:29;13.65;;;9.48;;
40537;SDS011;27925;41.874;12.526;2024-01-30T14:23:54;15.65;;;10.18;;
40537;SDS011;27925;41.874;12.526;2024-01-30T14:26:20;15.48;;;10.00;;
40537;SDS011;27925;41.874;12.526;2024-01-30T14:28:46;14.57;;;10.05;;
40537;SDS011;27925;41.874;12.526;2024-01-30T14:31:12;18.50;;;10.32;;
40537;SDS011;27925;41.874;12.526;2024-01-30T14:33:38;12.98;;;9.60;;
40537;SDS011;27925;41.874;12.526;2024-01-30T14:36:04;13.88;;;9.40;;
40537;SDS011;27925;41.874;12.526;2024-01-30T14:38:30;14.70;;;9.60;;
40537;SDS011;27925;41.874;12.526;2024-01-30T14:40:56;15.52;;;9.65;;
40537;SDS011;27925;41.874;12.526;2024-01-30T14:43:22;15.25;;;9.40;;
40537;SDS011;27925;41.874;12.526;2024-01-30T14:45:47;15.05;;;9.82;;
40537;SDS011;27925;41.874;12.526;2024-01-30T14:48:14;14.27;;;9.32;;
40537;SDS011;27925;41.874;12.526;2024-01-30T14:50:40;13.45;;;9.20;;
40537;SDS011;27925;41.874;12.526;2024-01-30T14:53:06;14.02;;;9.38;;
40537;SDS011;27925;41.874;12.526;2024-01-30T14:55:32;13.55;;;9.88;;
40537;SDS011;27925;41.874;12.526;2024-01-30T14:57:58;15.05;;;10.20;;
40537;SDS011;27925;41.874;12.526;2024-01-30T15:00:24;15.90;;;10.27;;
40537;SDS011;27925;41.874;12.526;2024-01-30T15:02:50;15.13;;;9.38;;
40537;SDS011;27925;41.874;12.526;2024-01-30T15:05:16;18.30;;;9.63;;
40537;SDS011;27925;41.874;12.526;2024-01-30T15:07:42;14.20;;;9.55;;
40537;SDS011;27925;41.874;12.526;2024-01-30T15:10:08;17.52;;;10.13;;
40537;SDS011;27925;41.874;12.526;2024-01-30T15:12:37;19.73;;;10.27;;
40537;SDS011;27925;41.874;12.526;2024-01-30T15:15:04;15.93;;;10.43;;
40537;SDS011;27925;41.874;12.526;2024-01-30T15:17:32;17.35;;;9.85;;
40537;SDS011;27925;41.874;12.526;2024-01-30T15:19:58;16.20;;;9.90;;
40537;SDS011;27925;41.874;12.526;2024-01-30T15:22:25;15.82;;;10.65;;
40537;SDS011;27925;41.874;12.526;2024-01-30T15:24:51;16.67;;;11.63;;
40537;SDS011;27925;41.874;12.526;2024-01-30T15:27:16;14.48;;;10.20;;
40537;SDS011;27925;41.874;12.526;2024-01-30T15:29:44;13.73;;;9.50;;
40537;SDS011;27925;41.874;12.526;2024-01-30T15:32:10;17.88;;;10.35;;
40537;SDS011;27925;41.874;12.526;2024-01-30T15:34:36;15.63;;;10.35;;
40537;SDS011;27925;41.874;12.526;2024-01-30T15:37:02;16.73;;;11.07;;
40537;SDS011;27925;41.874;12.526;2024-01-30T15:39:28;16.70;;;11.35;;
40537;SDS011;27925;41.874;12.526;2024-01-30T15:41:54;14.60;;;11.07;;
40537;SDS011;27925;41.874;12.526;2024-01-30T15:44:19;17.23;;;11.27;;
40537;SDS011;27925;41.874;12.526;2024-01-30T15:46:46;20.00;;;11.77;;
40537;SDS011;27925;41.874;12.526;2024-01-30T15:49:11;15.40;;;11.38;;
40537;SDS011;27925;41.874;12.526;2024-01-30T15:51:37;26.20;;;11.73;;
40537;SDS011;27925;41.874;12.526;2024-01-30T15:54:03;16.30;;;11.18;;
40537;SDS011;27925;41.874;12.526;2024-01-30T15:56:28;20.63;;;12.00;;
40537;SDS011;27925;41.874;12.526;2024-01-30T15:58:54;17.35;;;11.55;;
40537;SDS011;27925;41.874;12.526;2024-01-30T16:01:20;18.50;;;11.07;;
40537;SDS011;27925;41.874;12.526;2024-01-30T16:03:45;18.05;;;11.25;;
40537;SDS011;27925;41.874;12.526;2024-01-30T16:06:11;15.57;;;11.63;;
40537;SDS011;27925;41.874;12.526;2024-01-30T16:08:38;18.52;;;11.55;;
40537;SDS011;27925;41.874;12.526;2024-01-30T16:11:04;14.77;;;10.95;;
40537;SDS011;27925;41.874;12.526;2024-01-30T16:13:30;15.40;;;10.80;;
40537;SDS011;27925;41.874;12.526;2024-01-30T16:15:55;16.98;;;11.35;;
40537;SDS011;27925;41.874;12.526;2024-01-30T16:18:22;16.90;;;11.48;;
40537;SDS011;27925;41.874;12.526;2024-01-30T16:20:50;15.50;;;11.70;;
40537;SDS011;27925;41.874;12.526;2024-01-30T16:23:16;19.27;;;11.25;;
40537;SDS011;27925;41.874;12.526;2024-01-30T16:25:42;15.13;;;10.80;;
40537;SDS011;27925;41.874;12.526;2024-01-30T16:28:07;15.43;;;10.85;;
40537;SDS011;27925;41.874;12.526;2024-01-30T16:30:33;20.45;;;12.30;;
40537;SDS011;27925;41.874;12.526;2024-01-30T16:32:58;18.35;;;12.50;;
40537;SDS011;27925;41.874;12.526;2024-01-30T16:35:26;20.52;;;11.63;;
40537;SDS011;27925;41.874;12.526;2024-01-30T16:37:51;16.70;;;11.95;;
40537;SDS011;27925;41.874;12.526;2024-01-30T16:40:17;22.08;;;12.55;;
40537;SDS011;27925;41.874;12.526;2024-01-30T16:42:43;17.10;;;12.02;;
40537;SDS011;27925;41.874;12.526;2024-01-30T16:45:08;17.33;;;11.95;;
40537;SDS011;27925;41.874;12.526;2024-01-30T16:47:34;19.25;;;11.40;;
40537;SDS011;27925;41.874;12.526;2024-01-30T16:50:00;19.77;;;13.40;;
40537;SDS011;27925;41.874;12.526;2024-01-30T16:52:25;18.65;;;12.02;;
40537;SDS011;27925;41.874;12.526;2024-01-30T16:54:52;20.05;;;11.75;;
40537;SDS011;27925;41.874;12.526;2024-01-30T16:57:18;18.83;;;12.65;;
40537;SDS011;27925;41.874;12.526;2024-01-30T16:59:44;20.13;;;13.50;;
40537;SDS011;27925;41.874;12.526;2024-01-30T17:02:09;18.83;;;13.40;;
40537;SDS011;27925;41.874;12.526;2024-01-30T17:04:35;19.33;;;13.52;;
40537;SDS011;27925;41.874;12.526;2024-01-30T17:07:01;21.05;;;13.63;;
40537;SDS011;27925;41.874;12.526;2024-01-30T17:09:28;20.83;;;14.20;;
40537;SDS011;27925;41.874;12.526;2024-01-30T17:11:53;19.27;;;13.63;;
40537;SDS011;27925;41.874;12.526;2024-01-30T17:14:19;18.90;;;13.27;;
40537;SDS011;27925;41.874;12.526;2024-01-30T17:16:45;20.17;;;13.98;;
40537;SDS011;27925;41.874;12.526;2024-01-30T17:19:13;16.90;;;12.45;;
40537;SDS011;27925;41.874;12.526;2024-01-30T17:21:40;17.70;;;13.55;;
40537;SDS011;27925;41.874;12.526;2024-01-30T17:24:05;18.83;;;13.50;;
40537;SDS011;27925;41.874;12.526;2024-01-30T17:26:32;23.17;;;14.88;;
40537;SDS011;27925;41.874;12.526;2024-01-30T17:28:58;21.52;;;15.20;;
40537;SDS011;27925;41.874;12.526;2024-01-30T17:31:23;22.58;;;14.80;;
40537;SDS011;27925;41.874;12.526;2024-01-30T17:33:49;20.23;;;14.80;;
40537;SDS011;27925;41.874;12.526;2024-01-30T17:36:16;21.10;;;16.83;;
40537;SDS011;27925;41.874;12.526;2024-01-30T17:38:41;24.02;;;17.40;;
40537;SDS011;27925;41.874;12.526;2024-01-30T17:41:07;23.50;;;17.80;;
40537;SDS011;27925;41.874;12.526;2024-01-30T17:43:33;23.27;;;17.75;;
40537;SDS011;27925;41.874;12.526;2024-01-30T17:45:58;24.02;;;17.90;;
40537;SDS011;27925;41.874;12.526;2024-01-30T17:48:25;24.80;;;18.75;;
40537;SDS011;27925;41.874;12.526;2024-01-30T17:50:50;26.83;;;18.70;;
40537;SDS011;27925;41.874;12.526;2024-01-30T17:53:16;24.08;;;17.98;;
40537;SDS011;27925;41.874;12.526;2024-01-30T17:55:42;25.30;;;18.25;;
40537;SDS011;27925;41.874;12.526;2024-01-30T17:58:08;29.13;;;20.50;;
40537;SDS011;27925;41.874;12.526;2024-01-30T18:00:34;34.95;;;20.48;;
40537;SDS011;27925;41.874;12.526;2024-01-30T18:03:00;25.45;;;19.35;;
40537;SDS011;27925;41.874;12.526;2024-01-30T18:05:26;28.17;;;19.83;;
40537;SDS011;27925;41.874;12.526;2024-01-30T18:07:52;26.73;;;18.92;;
40537;SDS011;27925;41.874;12.526;2024-01-30T18:10:18;24.30;;;18.33;;
40537;SDS011;27925;41.874;12.526;2024-01-30T18:12:44;27.10;;;19.50;;
40537;SDS011;27925;41.874;12.526;2024-01-30T18:15:10;29.23;;;20.95;;
40537;SDS011;27925;41.874;12.526;2024-01-30T18:17:36;24.83;;;19.48;;
40537;SDS011;27925;41.874;12.526;2024-01-30T18:20:02;24.05;;;19.40;;
40537;SDS011;27925;41.874;12.526;2024-01-30T18:22:30;26.77;;;19.60;;
